METAR Data
IDs: Format: Raw Decoded Include TAF

Data at: 1724 UTC 24 Aug 2019

PAKI 241656Z AUTO 36008KT 10SM OVC040 12/11 A2985 RMK AO2 SLP110 T01170106
PAKI 241556Z AUTO 34008KT 10SM OVC038 11/10 A2984 RMK AO2 SLP107 T01110100
PAKI 241456Z AUTO 34007KT 10SM OVC038 11/10 A2984 RMK AO2 SLP105 T01110100 53005
PAKI 241356Z AUTO 34006KT 10SM BKN042 11/09 A2983 RMK AO2 SLP103 T01060094
PAKI 241256Z AUTO 35005KT 10SM OVC044 10/09 A2982 RMK AO2 SLP101 T01000089
PAKI 241156Z AUTO 34007KT 10SM FEW042 09/09 A2982 RMK AO2 SLP100 T00940089 10128 20094 53004
PAKI 241056Z AUTO 34007KT 10SM CLR 09/09 A2982 RMK AO2 SLP099 T00940089
PAKI 240956Z AUTO 34007KT 10SM CLR 09/08 A2981 RMK AO2 SLP097 T00940083
PAKI 240856Z AUTO 34007KT 10SM CLR 10/08 A2981 RMK AO2 SLP096 T01000078 401610089 51011
PAKI 240756Z AUTO 32006KT 10SM CLR 11/09 A2980 RMK AO2 SLP093 T01060094
PAKI 240656Z AUTO 33008KT 10SM CLR 11/09 A2979 RMK AO2 SLP089 T01110094
PAKI 240556Z AUTO 34009KT 10SM CLR 13/09 A2978 RMK AO2 SLP085 T01280089 10161 20128 53007
PAKI 240456Z AUTO 34010KT 10SM FEW046 14/08 A2977 RMK AO2 SLP081 T01440078
PAKI 240356Z AUTO 35009KT 10SM FEW037 14/08 A2976 RMK AO2 SLP079 T01440078
PAKI 240256Z AUTO 36012KT 10SM SCT039 SCT046 15/08 A2976 RMK AO2 SLP078 T01500083 52000
PAKI 240156Z AUTO 02012KT 10SM SCT039 16/07 A2975 RMK AO2 SLP077 T01560072
PAKI 240056Z AUTO 02012KT 10SM BKN034 BKN043 OVC050 15/08 A2976 RMK AO2 SLP079 T01500083
PAKI 232356Z AUTO 02015KT 10SM SCT030 SCT036 16/09 A2976 RMK AO2 SLP078 T01560089 10156 20106 55001
PAKI 232256Z AUTO 02014G18KT 10SM CLR 15/09 A2976 RMK AO2 SLP077 T01500089
PAKI 232156Z AUTO 36014KT 10SM SCT024 14/09 A2976 RMK AO2 SLP079 T01440089
PAKI 232131Z AUTO 02012KT 10SM SCT017 SCT023 14/09 A2976 RMK AO2
PAKI 232119Z AUTO 36012G16KT 10SM BKN017 14/10 A2976 RMK AO2
PAKI 232056Z AUTO 36009KT 10SM FEW012 13/10 A2976 RMK AO2 SLP079 T01330100 52004
PAKI 231956Z AUTO 34010KT 10SM FEW012 13/10 A2976 RMK AO2 SLP078 T01280100
PAKI 231856Z AUTO 34010KT 10SM FEW075 12/09 A2975 RMK AO2 SLP076 T01220094
PAKI 231656Z AUTO 32009KT 10SM CLR 10/08 A2975 RMK AO2 SLP075 T01000083
PAKI 231556Z AUTO 33010KT 10SM CLR 09/08 A2975 RMK AO2 SLP074 T00890078
PAKI 231456Z AUTO 33009KT 10SM CLR 09/08 A2974 RMK AO2 SLP072 T00890078 51007
PAKI 231356Z AUTO 33007KT 10SM CLR 09/08 A2973 RMK AO2 SLP070 T00940083
PAKI 231256Z AUTO 33009KT 10SM CLR 09/09 A2973 RMK AO2 SLP069 T00940089
PAKI 231156Z AUTO 33009KT 10SM CLR 11/09 A2972 RMK AO2 SLP065 T01060094 10139 20106 50003
PAKI 231056Z AUTO 32008KT 10SM BKN070 11/10 A2972 RMK AO2 SLP066 T01060100
PAKI 230956Z AUTO 33006KT 10SM CLR 11/10 A2972 RMK AO2 SLP064 T01060100
PAKI 230856Z AUTO 32007KT 10SM CLR 12/11 A2971 RMK AO2 SLP062 T01170106 401560100 53004
PAKI 230756Z AUTO 31010KT 10SM SCT060 12/11 A2971 RMK AO2 SLP061 T01220111
PAKI 230656Z AUTO 31011KT 10SM SCT043 OVC060 13/11 A2970 RMK AO2 SLP059 T01280106
PAKI 230556Z AUTO 31013KT 10SM BKN038 14/10 A2970 RMK AO2 SLP058 60000 T01390100 10156 20139 51003